NCAR-RAP Real-Time Weather Data

Output produced by METARs form (18 August 2018  01:02 UTC)
found at http://weather.rap.ucar.edu/surface/
 
ROAH 180030Z 11008KT 080V160 9999 FEW020 BKN/// 30/24 Q1006
ROAH 180000Z 09007KT 060V130 9999 FEW020 BKN/// 29/24 Q1006
ROAH 172330Z 10006KT 9999 FEW015 BKN/// 29/24 Q1006
ROAH 172300Z 10005KT 9999 FEW015 BKN/// 28/25 Q1006 RMK 1CU015 A2971
ROAH 172230Z 10004KT 060V130 9999 VCSH FEW015 BKN/// 28/25 Q1006
ROAH 172200Z 09002KT 9999 FEW015 BKN/// 27/25 Q1006 RMK 1CU015 A2971
ROAH 172130Z 08002KT 9999 VCSH FEW015 BKN/// 27/24 Q1005
ROAH 172100Z 07004KT 9999 FEW015 BKN/// 27/24 Q1005 RMK 1CU015 A2969
ROAH 172030Z 12004KT 9999 VCSH FEW015 27/24 Q1005 RMK 1CU015 A2969
ROAH 172000Z 12003KT 9999 FEW015 27/25 Q1005 RMK 1CU015 A2968
ROAH 171930Z 08002KT 9999 FEW015 27/25 Q1005 RMK 1CU015 A2968
ROAH 171900Z 13001KT 9999 FEW015 27/24 Q1005 RMK 1CU015 A2968
ROAH 171830Z 11002KT 9999 -SHRA FEW015 27/25 Q1005 RMK 2CU015 A2968
ROAH 171800Z 10003KT 9999 -SHRA FEW030 27/25 Q1005 RMK 2CU030 A2968
ROAH 171730Z 14006KT 9999 -SHRA FEW015 SCT030 27/23 Q1005 RMK 1CU015 3CU030 A2969
ROAH 171700Z 13005KT 9999 VCSH FEW015 27/24 Q1005 RMK 1CU015 A2969
ROAH 171630Z 14007KT 9999 VCSH FEW015 27/24 Q1005 RMK 1CU015 A2969
ROAH 171600Z 14008KT 9999 -SHRA FEW020 28/24 Q1005 RMK 2CU020 A2969
ROAH 171530Z 14007KT 9999 VCSH FEW020 28/25 Q1005 RMK 1CU020 A2969
ROAH 171500Z 14007KT 9999 VCSH FEW015 28/25 Q1005 RMK 1CU015 A2969
ROAH 171430Z 14008KT 9999 VCSH FEW015 28/25 Q1005 RMK 1CU015 A2969
ROAH 171400Z 13007KT 9999 VCSH FEW015 28/25 Q1005 RMK 2CU015 A2969
ROAH 171330Z 13008KT 9999 VCSH FEW015 28/25 Q1005 RMK 1CU015 A2969
ROAH 171300Z 13008KT 9999 VCSH FEW020 29/25 Q1005 RMK 1CU020 A2969
ROAH 171230Z 13008KT 9999 VCSH FEW015 29/25 Q1005 RMK 1CU015 A2968
ROAH 171200Z 12007KT 090V160 9999 VCSH FEW015 29/25 Q1005 RMK 1CU015 A2968
ROAH 171130Z 13008KT 9999 FEW015 29/25 Q1004 RMK 1CU015 A2967
ROAH 171100Z 13007KT 100V160 9999 FEW015 29/25 Q1004 RMK 1CU015 A2966
ROAH 171030Z 12010KT 9999 FEW015 29/25 Q1004 RMK 1CU015 A2966
ROAH 171000Z 12009KT 090V150 9999 FEW016 SCT/// 29/24 Q1003
ROAH 170930Z 13010KT 050V160 9999 FEW020 29/24 Q1003 RMK 2CU020 A2963
ROAH 170900Z 12010KT 9999 FEW020 30/24 Q1003 RMK 2CU020 A2963
ROAH 170830Z 12008KT 080V150 9999 FEW020 30/23 Q1003 RMK 2CU020 A2962
ROAH 170800Z 14010KT 090V160 9999 FEW020 30/25 Q1003 RMK 2CU020 A2962
ROAH 170730Z 12010KT 9999 FEW020 SCT030 30/24 Q1003 RMK 1CU020 4CU030 A2962
ROAH 170700Z 13011KT 090V150 9999 VCSH FEW020 SCT030 BKN050 30/24 Q1003 RMK 1CU020 3CU030 5SC050 A2962
ROAH 170630Z 14012KT 090V150 9999 VCSH FEW020 SCT030 BKN050 31/24 Q1003 RMK 1CU020 3CU030 5SC050 A2962
ROAH 170600Z 14013KT 9999 FEW020 SCT030 BKN/// 31/24 Q1003
ROAH 170530Z 14011KT 9999 FEW020 SCT030 BKN/// 31/24 Q1003
ROAH 170500Z 16008KT 110V200 9999 FEW020 SCT/// 31/24 Q1003
ROAH 170430Z 16008KT 130V190 9999 FEW020 SCT/// 32/23 Q1003 RMK 1CU020 A2963
ROAH 170400Z 16010KT 9999 FEW020 31/23 Q1003 RMK 2CU020 A2963
ROAH 170330Z 15011KT 110V190 9999 FEW017 31/24 Q1003 RMK 2CU017 A2963
ROAH 170300Z 15012KT 100V170 9999 FEW017 31/24 Q1003 RMK 2CU017 A2963
ROAH 170230Z 14011KT 090V160 9999 FEW017 31/24 Q1003 RMK 2CU017 A2964
ROAH 170200Z 14013KT 9999 FEW015 30/24 Q1003 RMK 2CU015 A2964
ROAH 170130Z 13013KT 9999 FEW015 30/24 Q1003 RMK 2CU015 A2964
ROAH 170100Z 13012KT 070V150 9999 FEW015 30/25 Q1004 RMK 2CU015 A2965
ROAH 170030Z 15010KT 9999 FEW015 BKN/// 29/24 Q1004
ROAH 170000Z 13010KT 9999 FEW015 BKN/// 29/24 Q1003 RMK 2CU015 A2964
ROAH 162330Z 15010KT 9999 FEW015 BKN/// 29/24 Q1003
ROAH 162300Z 14010KT 9999 FEW015 BKN/// 29/24 Q1003
ROAH 162230Z 15007KT 120V190 9999 FEW015 BKN/// 28/25 Q1003
ROAH 162200Z 13006KT 9999 FEW015 BKN/// 27/24 Q1003
ROAH 162130Z 14006KT 9999 FEW015 BKN/// 27/24 Q1003 RMK 1CU015 A2963
ROAH 162100Z 14005KT 9999 FEW015 BKN190 26/24 Q1003 RMK 1CU015 6AC190 A2963
ROAH 162030Z 14006KT 9999 FEW015 BKN190 27/24 Q1003 RMK 1CU015 5AC190 A2962
ROAH 162000Z 14004KT 9999 FEW015 BKN190 26/24 Q1003 RMK 2CU015 5AC190 A2963
ROAH 161930Z 14005KT 9999 FEW015 BKN180 26/25 Q1003 RMK 1CU015 5AC180 A2962
ROAH 161900Z 14007KT 9999 FEW015 BKN180 26/25 Q1002 RMK 1CU015 6AC180 A2961
ROAH 161830Z 15006KT 9999 FEW015 BKN180 26/25 Q1002 RMK 1CU015 6AC180 A2961
ROAH 161800Z 15006KT 9999 FEW015 BKN180 26/24 Q1002 RMK 1CU015 6AC180 A2961
ROAH 161730Z 16006KT 9999 -RA FEW015 BKN180 26/24 Q1002 RMK 1CU015 7AS180 A2961
ROAH 161700Z 16008KT 9999 -RA FEW015 BKN180 25/24 Q1003 RMK 2CU015 7AS180 A2962
ROAH 161630Z 15010KT 9999 -RA FEW015 BKN100 25/24 Q1003 RMK 2CU015 7AS100 A2963
ROAH 161600Z 15008KT 9999 -RA FEW015 BKN100 25/24 Q1003 RMK 2CU015 7AS100 A2964
ROAH 161540Z 15010KT 7000 -SHRA FEW015 SCT025 BKN090 25/24 Q1004 RMK 2CU015 4CU025 6AC090 A2966
ROAH 161530Z 15009KT 7000 SHRA FEW010 SCT025 BKN090 25/24 Q1004 RMK 2CU010 4CU025 6AC090 A2966
ROAH 161500Z 16009KT 4000 SHRA FEW015 SCT025 BKN050 25/24 Q1004 RMK 2CU015 4CU025 6SC050 A2967
ROAH 161430Z 15010KT 4000 SHRA FEW015 SCT025 BKN050 25/24 Q1004 RMK 2CU015 4CU025 6SC050 A2967
ROAH 161400Z 16011KT 4000 SHRA FEW010 SCT030 BKN050 25/24 Q1004 RMK 2CU010 4CU030 6SC050 A2967
ROAH 161346Z 16011KT 4000 SHRA FEW010 SCT020 BKN050 25/23 Q1004 RMK 2CU010 4CU020 6SC050 A2967
ROAH 161338Z 16012KT 2000 R18/0800V1800U +SHRA FEW010 SCT020 BKN030 25/24 Q1004 RMK 2CU010 4CU020 6CU030 A2967
ROAH 161330Z 15015KT 2000 R18/0750V1600U +SHRA FEW010 SCT015 BKN020 25/24 Q1005
ROAH 161323Z 15015KT 2000 R18/0750V1300U +SHRA FEW010 SCT015 BKN020 25/23 Q1004 RMK 2CU010 4CU015 6CU020 A2967 RI++
ROAH 161321Z 15014KT 2000 R18/0750VP1800D +SHRA FEW010 SCT015 BKN020 25/24 Q1004 RMK 2CU010 4CU015 6CU020 A2967 RI++
ROAH 161300Z 15013KT 3000 R18/0800VP1800N +SHRA FEW010 SCT020 BKN030 26/24 Q1004 RMK 2CU010 4CU020 6CU030 A2966
ROAH 161230Z 18012KT 9999 SHRA FEW010 SCT020 BKN030 26/25 Q1004 RMK 2CU010 4CU020 6CU030 A2965
ROAH 161219Z 17012G22KT 120V210 4000 +SHRA FEW010 SCT020 BKN030 26/24 Q1004 RMK 2CU010 4CU020 6CU030 A2965 RI++
ROAH 161200Z 15008KT 9999 SHRA FEW010 SCT030 BKN060 27/26 Q1003 RMK 1CU010 4CU030 6SC060 A2964
ROAH 161145Z 16009KT 9999 -SHRA FEW010 SCT030 BKN060 27/25 Q1003 RMK 2CU010 4CU030 6SC060 A2964
ROAH 161136Z 17012KT 7000 SHRA FEW010 SCT030 BKN070 27/25 Q1003 RMK 2CU010 4CU030 7AS070 A2964
ROAH 161130Z 17013KT 130V200 3000 +SHRA FEW010 SCT030 BKN070 26/24 Q1003 RMK 2CU010 4CU030 7AS070 A2964
ROAH 161126Z 16012KT 130V200 3000 +SHRA FEW010 SCT030 BKN070 27/24 Q1003 RMK 2CU010 4CU030 7AS070 A2964
ROAH 161114Z 15010KT 9999 SHRA FEW010 SCT030 BKN/// 27/25 Q1003 RMK 1CU010 4CU030 A2963
ROAH 161100Z 15012KT 9999 VCSH FEW010 SCT030 BKN/// 28/25 Q1003
ROAH 161030Z 16011KT 9999 VCSH FEW010 SCT030 BKN080 28/25 Q1003 RMK 1CU010 3CU030 6AS080 A2962
ROAH 161000Z 17013KT 9999 VCSH FEW010 SCT025 BKN080 28/24 Q1002 RMK 1CU010 3CU025 5AC080 A2961
ROAH 160930Z 16010KT 9999 VCSH FEW010 SCT020 BKN/// 28/25 Q1002
ROAH 160900Z 17011KT 9999 SCT010 BKN/// 28/25 Q1002
ROAH 160830Z 18015KT 9999 FEW010 SCT080 BKN/// 28/25 Q1001
ROAH 160800Z 17013KT 9999 FEW010 BKN080 BKN/// 28/25 Q1001
ROAH 160730Z 18013KT 9999 FEW010 BKN080 BKN/// 28/25 Q1001
ROAH 160700Z 18014KT 9999 -RA FEW010 BKN070 28/25 Q1001 RMK 1CU010 7AS070 A2958
ROAH 160630Z 18015KT 9999 -RA FEW010 SCT040 BKN070 28/24 Q1001 RMK 2CU010 3SC040 7AS070 A2958
ROAH 160600Z 19016KT 9999 -RA FEW010 SCT040 BKN080 27/25 Q1002 RMK 2CU010 4SC040 7AS080 A2959
ROAH 160530Z 19016KT 9999 -RA FEW010 SCT015 BKN050 27/25 Q1001 RMK 1CU010 3CU015 6SC050 A2959
ROAH 160500Z 19018KT 9999 -RA FEW010 SCT050 BKN080 27/24 Q1002 RMK 1CU010 3SC050 7AS080 A2960
ROAH 160430Z 20020KT 9999 -RA FEW010 SCT050 BKN080 27/25 Q1002 RMK 2CU010 4SC050 7AS080 A2960
ROAH 160400Z 20018KT 9999 -RA FEW010 SCT050 OVC080 27/25 Q1002 RMK 1CU010 4SC050 8AS080 A2960
ROAH 160330Z 20017KT 9999 -RA FEW010 SCT050 OVC080 27/25 Q1002 RMK 1CU010 4SC050 8AS080 A2960
ROAH 160300Z 20018KT 180V240 9999 -RA FEW015 SCT050 OVC080 27/25 Q1002 RMK 1CU015 4SC050 8AS080 A2960
ROAH 160244Z 20015KT 9999 -RA FEW015 SCT050 OVC080 27/25 Q1002 RMK 1CU015 4SC050 8AS080 A2960
ROAH 160230Z 20018KT 9999 RA FEW015 SCT050 OVC080 27/25 Q1002 RMK 1CU015 4SC050 8AS080 A2960
ROAH 160214Z 21020KT 9000 RA FEW015 SCT050 OVC080 26/24 Q1002 RMK 1CU015 4SC050 8AS080 A2961 4000S
ROAH 160200Z 21018KT 9999 -RA FEW015 SCT050 OVC080 27/25 Q1002 RMK 1CU015 4SC050 8AS080 A2961
ROAH 160130Z 20020KT 9999 -RA FEW015 SCT050 OVC080 27/25 Q1002 RMK 2CU015 4SC050 8AS080 A2961
ROAH 160100Z 18019KT 9999 -RA FEW010 SCT050 OVC080 27/25 Q1002 RMK 2CU010 4SC050 8AS080 A2961
ROAH 160032Z 18018G30KT 8000 -RA FEW010 SCT015 OVC080 27/25 Q1002 RMK 2CU010 4CU015 8AS080 A2961
ROAH 160030Z 18018KT 8000 -RA FEW010 SCT015 OVC080 27/26 Q1002 RMK 2CU010 4CU015 8AS080 A2961
ROAH 160000Z 18021KT 8000 -RA FEW010 SCT015 OVC080 27/25 Q1002 RMK 2CU010 4CU015 8AS080 A2961
ROAH 152347Z 18019KT 7000 -RA SCT010 BKN015 OVC080 27/25 Q1002 RMK 3CU010 5CU015 8AS080 A2961
ROAH 152330Z 18018KT 7000 RA FEW010 SCT015 OVC080 27/25 Q1002 RMK 1CU010 4CU015 8AS080 A2961
ROAH 152300Z 17019KT 6000 RA FEW015 OVC090 27/25 Q1002 RMK 2CU015 8AS090 A2961
ROAH 152230Z 16018KT 6000 RA FEW010 OVC090 27/25 Q1002 RMK 1CU010 8AS090 A2961
ROAH 152221Z 16017KT 4000 SHRA FEW010 SCT015 BKN080 27/25 Q1002 RMK 1CU010 3CU015 7AC080 A2961
ROAH 152200Z 16016KT 7000 SHRA FEW010 SCT015 BKN080 27/25 Q1002 RMK 1CU010 3CU015 7AC080 A2961
ROAH 152130Z 16013KT 7000 SHRA FEW015 SCT030 BKN045 27/25 Q1002 RMK 1CU015 3CU030 5SC045 A2960
ROAH 152100Z 15009KT 8000 -SHRA FEW007 SCT015 BKN035 26/25 Q1002 RMK 1ST007 3CU015 5CU035 A2959
ROAH 152038Z 20013KT 6000 -SHRA FEW007 SCT015 BKN030 26/24 Q1002 RMK 2ST007 3CU015 5CU030 A2960
ROAH 152030Z 20014KT 4000 SHRA FEW008 SCT015 BKN030 26/24 Q1002 RMK 1ST008 3CU015 5CU030 A2960
ROAH 152016Z 16014KT 4000 R18/1000VP1800U SHRA FEW008 SCT020 BKN030 26/24 Q1002 RMK 1ST008 3CU020 5CU030 A2960
ROAH 152011Z 15011KT 3000 R18/1000VP1800D SHRA FEW008 SCT020 BKN030 27/26 Q1002 RMK 1ST008 4CU020 6CU030 A2959
ROAH 152007Z 16012KT 3000 +SHRA FEW008 SCT020 BKN030 27/25 Q1002 RMK 1ST008 4CU020 6CU030 A2960 RI++
ROAH 152000Z 16013KT 6000 SHRA FEW008 SCT020 BKN030 27/25 Q1002 RMK 1ST008 4CU020 6CU030 A2960
ROAH 151937Z 16015KT 4000 SHRA FEW010 SCT030 BKN050 26/24 Q1002 RMK 1CU010 4CU030 6SC050 A2960
ROAH 151930Z 16016KT 9999 -SHRA FEW010 SCT030 BKN050 26/24 Q1002 RMK 1CU010 3CU030 5SC050 A2959
ROAH 151900Z 16018KT 9999 -RA FEW010 SCT025 BKN050 26/24 Q1002 RMK 1CU010 3CU025 5SC050 A2961
ROAH 151830Z 16019KT 9000 -RA FEW010 SCT025 BKN045 26/24 Q1002 RMK 1CU010 3CU025 5SC045 A2961
ROAH 151800Z 17018KT 8000 RA FEW008 SCT045 BKN070 27/25 Q1002 RMK 1ST008 3SC045 5AC070 A2961
ROAH 151730Z 17020KT 5000 RA FEW006 SCT050 BKN090 26/24 Q1002 RMK 1ST006 3SC050 6AC090 A2960
ROAH 151712Z 18021KT 6000 RA FEW015 BKN100 26/24 Q1002 RMK 1CU015 7AC100 A2959
ROAH 151700Z 19023KT 8000 -RA FEW015 SCT025 BKN050 26/23 Q1002 RMK 1CU015 3CU025 5SC050 A2960
ROAH 151634Z 18020G30KT 9999 -RA FEW015 SCT025 BKN045 28/25 Q1002 RMK 1CU015 3CU025 6SC045 A2959
ROAH 151630Z 18020KT 9999 -RA FEW015 SCT025 BKN045 28/25 Q1002 RMK 1CU015 3CU025 6SC045 A2960
ROAH 151600Z 19022KT 9999 -RA FEW015 SCT035 BKN180 28/25 Q1002 RMK 1CU015 3SC035 7AC180 A2960
ROAH 151530Z 19022KT 9999 -RA FEW015 BKN170 28/24 Q1002 RMK 2CU015 7AC170 A2960
ROAH 151500Z 19021KT 9999 -SHRA FEW010 BKN020 BKN150 28/25 Q1002 RMK 1CU010 5CU020 6AC150 A2960
ROAH 151430Z 19020KT 9999 -SHRA FEW010 SCT020 FEW025TCU BKN150 27/25 Q1002 RMK 1CU010 3CU020 1TCU025 6AC150 A2959 TCU 10KM E MOV NE
ROAH 151417Z 20022KT 8000 -SHRA FEW010 SCT020 FEW025TCU BKN130 27/25 Q1002 RMK 1CU010 4CU020 1TCU025 6AC130 A2959 TCU 8KM NE MOV NE
ROAH 151404Z 19019G29KT 2000 +SHRA FEW010 BKN020 SCT025TCU 28/25 Q1002 RMK 2CU010 5CU020 3TCU025 A2959 TCU OHD MOV NE
ROAH 151400Z 19019KT 8000 +SHRA FEW010 BKN020 SCT025TCU 28/25 Q1002 RMK 1CU010 5CU020 3TCU025 A2960 TCU OHD MOV NE
ROAH 151330Z 19021KT 9999 -SHRA FEW010 BKN015 28/25 Q1002 RMK 1CU010 6CU015 A2960